createdAt,value
2018-09-25T00:01:07.615Z,100.00
2018-09-25T00:02:34.719Z,100.00
2018-09-25T00:04:06.020Z,100.00
2018-09-25T00:05:28.864Z,100.00
2018-09-25T00:07:00.069Z,100.00
2018-09-25T00:08:23.445Z,100.00
2018-09-25T00:09:50.245Z,100.00
2018-09-25T00:11:21.565Z,100.00
2018-09-25T00:12:44.847Z,100.00
2018-09-25T00:14:12.032Z,100.00
2018-09-25T00:15:39.226Z,100.00
2018-09-25T00:17:06.106Z,100.00
2018-09-25T00:18:32.808Z,100.00
2018-09-25T00:19:59.726Z,100.00
2018-09-25T00:21:26.941Z,100.00
2018-09-25T00:22:58.285Z,100.00
2018-09-25T00:24:25.657Z,100.00
2018-09-25T00:25:49.000Z,100.00
2018-09-25T00:27:16.325Z,100.00
2018-09-25T00:28:43.751Z,100.00
2018-09-25T00:30:14.900Z,100.00
2018-09-25T00:31:42.166Z,100.00
2018-09-25T00:33:08.771Z,100.00
2018-09-25T00:34:36.068Z,100.00
2018-09-25T00:36:03.506Z,100.00
2018-09-25T00:37:26.666Z,100.00
2018-09-25T00:38:53.224Z,100.00
2018-09-25T00:40:20.552Z,100.00
2018-09-25T00:41:51.926Z,100.00
2018-09-25T00:43:14.935Z,100.00
2018-09-25T00:44:46.220Z,100.00
2018-09-25T00:46:09.421Z,100.00
2018-09-25T00:47:36.178Z,100.00
2018-09-25T00:49:07.433Z,100.00
2018-09-25T00:50:29.943Z,100.00
2018-09-25T00:52:00.490Z,100.00
2018-09-25T00:53:23.717Z,100.00
2018-09-25T00:54:50.955Z,100.00
2018-09-25T00:56:22.183Z,100.00
2018-09-25T00:57:49.542Z,100.00
2018-09-25T00:59:16.748Z,100.00
2018-09-25T01:00:44.064Z,100.00
2018-09-25T01:02:10.665Z,100.00
2018-09-25T01:03:37.876Z,100.00
2018-09-25T01:05:04.168Z,100.00
2018-09-25T01:06:31.514Z,100.00
2018-09-25T01:07:54.863Z,100.00
2018-09-25T01:09:22.105Z,100.00
2018-09-25T01:10:49.599Z,100.00
2018-09-25T01:12:16.815Z,100.00
2018-09-25T01:13:47.965Z,100.00
2018-09-25T01:15:11.227Z,100.00
2018-09-25T01:16:42.535Z,100.00
2018-09-25T01:18:09.351Z,100.00
2018-09-25T01:19:36.646Z,100.00
2018-09-25T01:20:59.768Z,100.00
2018-09-25T01:22:26.606Z,100.00
2018-09-25T01:23:53.937Z,100.00
2018-09-25T01:25:21.192Z,100.00
2018-09-25T01:26:52.492Z,100.00
2018-09-25T01:28:19.922Z,100.00
2018-09-25T01:29:43.112Z,100.00
2018-09-25T01:31:13.967Z,100.00
2018-09-25T01:32:36.676Z,100.00
2018-09-25T01:34:03.826Z,100.00
2018-09-25T01:35:34.520Z,100.00
2018-09-25T01:37:01.779Z,100.00
2018-09-25T01:38:28.991Z,100.00
2018-09-25T01:39:56.396Z,100.00
2018-09-25T01:41:19.172Z,100.00
2018-09-25T01:42:46.328Z,100.00
2018-09-25T01:44:16.922Z,100.00
2018-09-25T01:45:43.827Z,100.00
2018-09-25T01:47:10.628Z,100.00
2018-09-25T01:48:33.556Z,100.00
2018-09-25T01:50:00.241Z,100.00
2018-09-25T01:51:31.524Z,100.00
2018-09-25T01:52:54.759Z,100.00
2018-09-25T01:54:26.078Z,100.00
2018-09-25T01:55:53.288Z,100.00
2018-09-25T01:57:20.617Z,100.00
2018-09-25T01:58:47.681Z,100.00
2018-09-25T02:00:10.923Z,100.00
2018-09-25T02:01:42.321Z,100.00
2018-09-25T02:03:05.294Z,100.00
2018-09-25T02:04:36.055Z,100.00
2018-09-25T02:06:03.323Z,100.00
2018-09-25T02:07:26.517Z,100.00
2018-09-25T02:08:57.262Z,100.00
2018-09-25T02:10:20.489Z,100.00
2018-09-25T02:11:46.998Z,100.00
2018-09-25T02:13:47.319Z,100.00
2018-09-25T02:22:30.308Z,100.00
2018-09-25T02:23:56.859Z,100.00
2018-09-25T02:25:24.115Z,100.00
2018-09-25T02:26:51.203Z,100.00
2018-09-25T02:28:14.400Z,100.00
2018-09-25T02:29:45.711Z,100.00
2018-09-25T02:31:08.977Z,100.00
2018-09-25T02:32:36.303Z,100.00
2018-09-25T02:34:03.458Z,100.00
2018-09-25T02:35:30.648Z,100.00
2018-09-25T02:37:01.560Z,100.00
2018-09-25T02:38:28.370Z,100.00
2018-09-25T02:39:55.826Z,100.00
2018-09-25T02:41:22.610Z,100.00
2018-09-25T02:42:45.418Z,100.00
2018-09-25T02:44:16.635Z,100.00
2018-09-25T02:45:39.743Z,100.00
2018-09-25T02:47:06.810Z,100.00
2018-09-25T02:48:38.030Z,100.00
2018-09-25T02:50:04.721Z,100.00
2018-09-25T02:51:31.514Z,100.00
2018-09-25T02:52:58.574Z,100.00
2018-09-25T02:54:25.689Z,100.00
2018-09-25T02:55:49.032Z,100.00
2018-09-25T02:57:16.325Z,100.00
2018-09-25T03:07:21.170Z,100.00
2018-09-25T03:08:47.187Z,100.00
2018-09-25T03:10:14.205Z,100.00
2018-09-25T03:26:22.762Z,100.00
2018-09-25T03:28:56.597Z,100.00
2018-09-25T03:30:19.129Z,100.00
2018-09-25T03:31:50.150Z,100.00
2018-09-25T03:59:27.523Z,100.00
2018-09-25T04:00:49.495Z,100.00
2018-09-25T04:02:20.733Z,100.00
2018-09-25T04:03:43.725Z,100.00
2018-09-25T04:05:10.845Z,100.00
2018-09-25T04:06:37.950Z,100.00
2018-09-25T04:08:09.207Z,100.00
2018-09-25T04:09:36.486Z,100.00
2018-09-25T04:49:59.646Z,100.00
2018-09-25T04:51:26.505Z,100.00
2018-09-25T04:52:49.546Z,100.00
2018-09-25T04:54:16.772Z,100.00
2018-09-25T04:55:43.860Z,100.00
2018-09-25T04:57:11.237Z,100.00
2018-09-25T04:58:38.245Z,100.00
2018-09-25T05:26:29.056Z,100.00
2018-09-25T05:27:51.633Z,100.00
2018-09-25T05:29:22.776Z,100.00
2018-09-25T05:30:45.926Z,100.00
2018-09-25T05:32:17.025Z,100.00
2018-09-25T05:33:40.187Z,100.00
2018-09-25T06:56:35.180Z,100.00
2018-09-25T06:57:57.825Z,100.00
2018-09-25T06:59:28.667Z,100.00
2018-09-25T07:00:56.035Z,100.00
2018-09-25T07:02:23.250Z,100.00
2018-09-25T07:03:46.590Z,100.00
2018-09-25T07:05:17.700Z,100.00
2018-09-25T07:06:44.725Z,100.00
2018-09-25T07:08:08.009Z,100.00
2018-09-25T07:18:41.985Z,100.00
2018-09-25T07:20:08.635Z,100.00
2018-09-25T07:22:34.085Z,100.00
2018-09-25T07:24:00.998Z,100.00
2018-09-25T07:25:27.271Z,100.00
2018-09-25T07:26:50.361Z,100.00
2018-09-25T07:28:21.005Z,100.00
2018-09-25T07:29:47.643Z,100.00
2018-09-25T07:31:10.853Z,100.00
2018-09-25T07:33:16.528Z,100.00
2018-09-25T07:34:43.419Z,100.00
2018-09-25T07:37:57.066Z,100.00
2018-09-25T07:39:23.415Z,100.00
2018-09-25T07:40:50.544Z,100.00
2018-09-25T07:42:16.972Z,100.00
2018-09-25T07:43:44.270Z,100.00
2018-09-25T07:45:10.513Z,100.00
2018-09-25T07:46:37.531Z,100.00
2018-09-25T07:48:04.999Z,100.00
2018-09-25T07:49:35.957Z,100.00
2018-09-25T07:50:59.401Z,100.00
2018-09-25T07:52:29.692Z,100.00
2018-09-25T07:53:56.839Z,100.00
2018-09-25T07:55:23.506Z,100.00
2018-09-25T07:56:50.846Z,100.00
2018-09-25T07:58:17.207Z,100.00
2018-09-25T07:59:43.615Z,100.00
2018-09-25T08:01:11.013Z,100.00
2018-09-25T08:02:38.289Z,100.00
2018-09-25T08:04:01.561Z,100.00
2018-09-25T08:05:29.210Z,100.00
2018-09-25T08:06:56.646Z,100.00
2018-09-25T08:08:27.223Z,100.00
2018-09-25T08:09:53.744Z,100.00
2018-09-25T08:11:21.287Z,100.00
2018-09-25T08:12:43.602Z,100.00
2018-09-25T08:14:09.868Z,100.00
2018-09-25T08:15:40.954Z,100.00
2018-09-25T08:17:08.294Z,100.00
2018-09-25T08:18:31.126Z,100.00
2018-09-25T08:20:02.433Z,100.00
2018-09-25T08:21:29.014Z,100.00
2018-09-25T08:22:56.513Z,100.00
2018-09-25T08:24:19.835Z,100.00
2018-09-25T08:25:46.735Z,100.00
2018-09-25T08:27:13.465Z,100.00
2018-09-25T08:28:39.995Z,100.00
2018-09-25T08:30:10.917Z,100.00
2018-09-25T08:31:34.079Z,100.00
2018-09-25T08:33:05.708Z,100.00
2018-09-25T08:34:32.374Z,100.00
2018-09-25T08:35:58.967Z,100.00
2018-09-25T08:37:25.863Z,100.00
2018-09-25T08:38:48.667Z,100.00
2018-09-25T08:40:19.889Z,100.00
2018-09-25T08:41:43.339Z,100.00
2018-09-25T08:43:10.310Z,100.00
2018-09-25T08:44:41.719Z,100.00
2018-09-25T08:46:09.024Z,100.00
2018-09-25T08:47:36.603Z,100.00
2018-09-25T08:49:03.055Z,100.00
2018-09-25T08:50:30.550Z,100.00
2018-09-25T08:51:57.858Z,100.00
2018-09-25T08:53:21.244Z,100.00
2018-09-25T08:54:48.521Z,100.00
2018-09-25T08:56:15.436Z,100.00
2018-09-25T08:57:46.821Z,100.00
2018-09-25T08:59:13.992Z,100.00
2018-09-25T09:00:41.197Z,100.00
2018-09-25T09:02:08.397Z,100.00
2018-09-25T09:03:30.942Z,100.00
2018-09-25T09:04:58.452Z,100.00
2018-09-25T09:06:29.728Z,100.00
2018-09-25T09:07:56.941Z,100.00
2018-09-25T09:09:20.397Z,100.00
2018-09-25T09:10:51.246Z,100.00
2018-09-25T09:12:18.643Z,100.00
2018-09-25T09:13:41.843Z,100.00
2018-09-25T09:15:12.411Z,100.00
2018-09-25T09:16:35.503Z,100.00
2018-09-25T09:18:02.625Z,100.00
2018-09-25T09:19:30.163Z,100.00
2018-09-25T09:21:01.452Z,100.00
2018-09-25T09:22:24.762Z,100.00
2018-09-25T09:23:52.354Z,100.00
2018-09-25T09:25:23.629Z,100.00
2018-09-25T09:26:46.946Z,100.00
2018-09-25T09:28:18.192Z,100.00
2018-09-25T09:29:48.688Z,100.00
2018-09-25T09:31:13.003Z,100.00
2018-09-25T09:32:40.245Z,100.00
2018-09-25T09:34:03.131Z,100.00
2018-09-25T09:35:30.610Z,100.00
2018-09-25T09:36:58.167Z,100.00
2018-09-25T09:38:29.478Z,100.00
2018-09-25T09:39:56.649Z,100.00
2018-09-25T09:41:24.289Z,100.00
2018-09-25T09:42:47.626Z,100.00
2018-09-25T09:44:17.870Z,100.00
2018-09-25T09:45:40.849Z,100.00
2018-09-25T09:47:11.721Z,100.00
2018-09-25T09:48:34.768Z,100.00
2018-09-25T09:50:02.165Z,100.00
2018-09-25T09:51:32.673Z,100.00
2018-09-25T09:52:56.061Z,100.00
2018-09-25T09:54:23.530Z,100.00
2018-09-25T09:55:50.802Z,100.00
2018-09-25T09:57:22.099Z,100.00
2018-09-25T09:58:49.512Z,100.00
2018-09-25T10:00:13.067Z,99.77
2018-09-25T10:01:44.263Z,97.58
2018-09-25T10:03:07.311Z,98.04
2018-09-25T10:06:01.247Z,97.60
2018-09-25T10:07:32.505Z,98.73
2018-09-25T10:08:55.957Z,95.92
2018-09-25T10:10:27.293Z,93.69
2018-09-25T10:11:54.716Z,94.81
2018-09-25T10:13:17.323Z,91.52
2018-09-25T10:14:48.470Z,87.02
2018-09-25T10:16:15.890Z,92.22
2018-09-25T10:17:43.030Z,91.55
2018-09-25T10:19:05.830Z,90.25
2018-09-25T10:20:37.230Z,90.82
2018-09-25T10:22:04.534Z,92.23
2018-09-25T10:23:31.766Z,91.21
2018-09-25T10:24:55.297Z,90.01
2018-09-25T10:26:22.909Z,86.38
2018-09-25T10:27:49.441Z,86.19
2018-09-25T10:29:16.831Z,85.25
2018-09-25T10:30:48.253Z,83.86
2018-09-25T10:32:15.498Z,82.86
2018-09-25T10:33:42.210Z,83.83
2018-09-25T10:35:09.628Z,84.45
2018-09-25T10:36:31.747Z,84.08
2018-09-25T10:37:59.234Z,85.66
2018-09-25T10:39:27.687Z,82.34
2018-09-25T10:40:53.132Z,79.24
2018-09-25T10:42:19.854Z,81.95
2018-09-25T10:43:46.249Z,83.24
2018-09-25T10:45:17.659Z,79.11
2018-09-25T10:46:45.124Z,78.12
2018-09-25T10:48:08.546Z,78.85
2018-09-25T10:49:39.933Z,79.99
2018-09-25T10:51:07.357Z,79.04
2018-09-25T10:52:34.737Z,76.95
2018-09-25T10:54:01.157Z,74.86
2018-09-25T10:55:28.574Z,76.87
2018-09-25T10:56:56.031Z,78.00
2018-09-25T10:58:22.831Z,77.56
2018-09-25T10:59:46.270Z,76.20
2018-09-25T11:01:16.646Z,74.95
2018-09-25T11:02:43.929Z,74.28
2018-09-25T11:04:06.976Z,76.22
2018-09-25T11:05:34.249Z,80.56
2018-09-25T11:07:05.547Z,78.09
2018-09-25T11:08:28.982Z,76.33
2018-09-25T11:10:00.565Z,75.86
2018-09-25T11:11:27.994Z,75.65
2018-09-25T11:12:55.421Z,70.33
2018-09-25T11:14:18.565Z,73.61
2018-09-25T11:15:45.919Z,74.82
2018-09-25T11:17:13.246Z,75.35
2018-09-25T11:18:39.929Z,71.20
2018-09-25T11:20:07.279Z,69.53
2018-09-25T11:21:38.623Z,68.45
2018-09-25T11:23:02.226Z,64.83
2018-09-25T11:24:33.668Z,63.84
2018-09-25T11:26:01.236Z,62.82
2018-09-25T11:27:27.551Z,65.03
2018-09-25T11:28:54.987Z,64.47
2018-09-25T11:30:22.444Z,64.86
2018-09-25T11:31:45.776Z,64.05
2018-09-25T11:33:16.106Z,64.97
2018-09-25T11:34:38.999Z,65.13
2018-09-25T11:36:05.474Z,62.33
2018-09-25T11:37:36.924Z,65.28
2018-09-25T11:38:59.686Z,63.91
2018-09-25T11:40:26.947Z,64.09
2018-09-25T11:41:58.471Z,60.96
2018-09-25T11:43:22.017Z,59.90
2018-09-25T11:44:49.471Z,63.00
2018-09-25T11:46:20.864Z,60.46
2018-09-25T11:47:43.315Z,58.75
2018-09-25T11:49:14.811Z,62.88
2018-09-25T11:50:42.108Z,64.23
2018-09-25T11:52:05.161Z,59.12
2018-09-25T11:53:32.675Z,59.53
2018-09-25T11:55:01.086Z,60.81
2018-09-25T11:56:30.555Z,62.66
2018-09-25T11:57:53.959Z,62.40
2018-09-25T11:59:25.395Z,59.47
2018-09-25T12:00:48.871Z,60.07
2018-09-25T12:02:20.409Z,60.91
2018-09-25T12:03:44.012Z,60.12
2018-09-25T12:05:15.347Z,61.58
2018-09-25T12:06:42.759Z,59.68
2018-09-25T12:08:10.305Z,59.53
2018-09-25T12:09:37.679Z,58.90
2018-09-25T12:11:01.150Z,59.89
2018-09-25T12:12:27.779Z,60.53
2018-09-25T12:13:58.044Z,60.60
2018-09-25T12:15:20.466Z,61.48
2018-09-25T12:16:52.025Z,60.38
2018-09-25T12:18:15.406Z,57.05
2018-09-25T12:19:43.009Z,57.14
2018-09-25T12:21:10.557Z,56.00
2018-09-25T12:22:41.964Z,54.23
2018-09-25T12:24:05.532Z,57.60
2018-09-25T12:25:31.995Z,58.71
2018-09-25T12:27:03.340Z,57.06
2018-09-25T12:28:25.793Z,56.18
2018-09-25T12:29:53.529Z,56.82
2018-09-25T12:31:21.001Z,59.72
2018-09-25T12:32:48.479Z,57.28
2018-09-25T12:34:15.715Z,56.74
2018-09-25T12:35:42.128Z,57.18
2018-09-25T12:37:08.810Z,56.48
2018-09-25T12:38:35.803Z,56.62
2018-09-25T12:40:07.126Z,58.15
2018-09-25T12:41:27.519Z,58.02
2018-09-25T12:42:57.857Z,60.53
2018-09-25T12:44:29.242Z,62.19
2018-09-25T12:45:52.652Z,62.24
2018-09-25T12:47:20.070Z,62.66
2018-09-25T12:48:47.460Z,64.42
2018-09-25T12:50:14.959Z,64.61
2018-09-25T12:51:42.356Z,66.69
2018-09-25T12:53:09.933Z,69.81
2018-09-25T12:54:41.147Z,70.72
2018-09-25T12:56:04.497Z,67.36
2018-09-25T12:57:31.871Z,69.39
2018-09-25T12:59:03.320Z,69.11
2018-09-25T13:00:26.459Z,71.04
2018-09-25T13:01:58.034Z,69.35
2018-09-25T13:03:25.580Z,66.03
2018-09-25T13:04:48.828Z,61.80
2018-09-25T13:06:20.438Z,60.38
2018-09-25T13:07:47.926Z,60.51
2018-09-25T13:09:11.284Z,61.37
2018-09-25T13:10:41.922Z,59.16
2018-09-25T13:12:09.444Z,58.07
2018-09-25T13:13:36.875Z,59.21
2018-09-25T13:15:03.123Z,58.91
2018-09-25T13:16:26.662Z,58.15
2018-09-25T13:17:58.059Z,56.97
2018-09-25T13:19:21.307Z,55.73
2018-09-25T13:20:52.884Z,57.33
2018-09-25T13:22:16.445Z,55.42
2018-09-25T13:23:43.772Z,56.25
2018-09-25T13:25:10.404Z,55.86
2018-09-25T13:26:37.214Z,56.59
2018-09-25T13:28:08.677Z,56.82
2018-09-25T13:29:35.335Z,58.19
2018-09-25T13:30:58.818Z,58.96
2018-09-25T13:32:30.106Z,55.53
2018-09-25T13:33:53.568Z,54.63
2018-09-25T13:35:24.929Z,52.25
2018-09-25T13:36:48.398Z,53.95
2018-09-25T13:38:15.614Z,55.97
2018-09-25T13:39:47.044Z,57.73
2018-09-25T13:41:09.618Z,58.61
2018-09-25T13:42:36.100Z,59.44
2018-09-25T13:44:07.470Z,60.55
2018-09-25T13:45:30.875Z,61.29
2018-09-25T13:46:58.547Z,60.49
2018-09-25T13:48:26.004Z,61.34
2018-09-25T13:49:53.459Z,62.13
2018-09-25T13:51:19.937Z,62.79
2018-09-25T13:52:51.296Z,60.78
2018-09-25T13:54:17.488Z,60.80
2018-09-25T13:55:40.626Z,61.66
2018-09-25T13:57:08.034Z,61.86
2018-09-25T13:58:34.929Z,61.11
2018-09-25T14:00:06.355Z,61.09
2018-09-25T14:01:33.870Z,61.39
2018-09-25T14:03:00.375Z,59.89
2018-09-25T14:04:23.867Z,60.83
2018-09-25T14:05:55.235Z,60.42
2018-09-25T14:07:22.383Z,60.59
2018-09-25T14:08:45.740Z,62.77
2018-09-25T14:10:13.133Z,63.58
2018-09-25T14:11:44.382Z,62.56
2018-09-25T14:13:11.440Z,63.78
2018-09-25T14:14:33.943Z,64.61
2018-09-25T14:16:05.241Z,66.68
2018-09-25T14:17:32.532Z,64.39
2018-09-25T14:18:59.085Z,65.32
2018-09-25T14:20:26.699Z,66.75
2018-09-25T14:21:54.040Z,65.90
2018-09-25T14:23:17.258Z,66.13
2018-09-25T14:24:44.965Z,64.94
2018-09-25T14:26:11.034Z,66.09
2018-09-25T14:27:37.998Z,67.11
2018-09-25T14:29:09.330Z,68.00
2018-09-25T14:30:36.560Z,67.64
2018-09-25T14:32:00.095Z,69.44
2018-09-25T14:33:27.486Z,70.66
2018-09-25T14:34:58.588Z,70.69
2018-09-25T14:36:21.060Z,72.49
2018-09-25T14:37:48.526Z,72.74
2018-09-25T14:39:19.047Z,72.74
2018-09-25T14:40:42.383Z,74.08
2018-09-25T14:42:09.473Z,73.95
2018-09-25T14:43:40.969Z,73.40
2018-09-25T14:45:04.205Z,74.58
2018-09-25T14:46:35.638Z,75.48
2018-09-25T14:48:03.145Z,75.18
2018-09-25T14:49:30.590Z,74.68
2018-09-25T14:50:53.930Z,75.20
2018-09-25T14:52:25.264Z,74.92
2018-09-25T14:53:53.678Z,76.65
2018-09-25T14:55:16.128Z,75.87
2018-09-25T14:56:47.500Z,76.81
2018-09-25T14:58:10.792Z,75.50
2018-09-25T14:59:42.153Z,76.78
2018-09-25T15:01:09.105Z,75.81
2018-09-25T15:02:32.505Z,76.15
2018-09-25T15:03:59.992Z,78.59
2018-09-25T15:05:31.519Z,78.25
2018-09-25T15:06:54.725Z,78.77
2018-09-25T15:08:22.169Z,78.70
2018-09-25T15:09:49.792Z,79.17
2018-09-25T15:11:16.969Z,78.51
2018-09-25T15:12:44.429Z,78.34
2018-09-25T15:14:15.927Z,79.24
2018-09-25T15:15:39.282Z,79.43
2018-09-25T15:17:09.805Z,80.70
2018-09-25T15:18:33.363Z,80.94
2018-09-25T15:20:04.756Z,81.79
2018-09-25T15:21:31.293Z,82.21
2018-09-25T15:22:58.531Z,82.23
2018-09-25T15:24:21.918Z,82.31
2018-09-25T15:25:53.356Z,81.73
2018-09-25T15:27:20.746Z,83.07
2018-09-25T15:28:43.959Z,83.95
2018-09-25T15:30:11.376Z,85.13
2018-09-25T15:31:38.649Z,84.55
2018-09-25T15:33:05.389Z,85.84
2018-09-25T15:34:35.963Z,84.38
2018-09-25T15:35:59.018Z,82.70
2018-09-25T15:37:25.658Z,82.39
2018-09-25T15:38:52.909Z,83.46
2018-09-25T15:40:20.351Z,84.48
2018-09-25T15:41:47.538Z,85.36
2018-09-25T15:43:18.872Z,84.83
2018-09-25T15:44:46.323Z,85.72
2018-09-25T15:46:13.221Z,84.71
2018-09-25T15:47:36.660Z,84.67
2018-09-25T15:49:03.943Z,83.74
2018-09-25T15:50:31.316Z,83.65
2018-09-25T15:52:02.500Z,84.38
2018-09-25T15:53:29.926Z,84.86
2018-09-25T15:54:57.424Z,85.04
2018-09-25T15:56:20.748Z,85.75
2018-09-25T15:57:48.362Z,85.78
2018-09-25T15:59:15.676Z,86.73
2018-09-25T16:00:46.330Z,87.50
2018-09-25T16:02:13.676Z,88.12
2018-09-25T16:03:40.547Z,89.05
2018-09-25T16:05:07.237Z,88.81
2018-09-25T16:06:29.773Z,88.96
2018-09-25T16:07:57.097Z,90.07
2018-09-25T16:09:24.469Z,90.68
2018-09-25T16:10:51.262Z,90.88
2018-09-25T16:12:22.642Z,91.36
2018-09-25T16:13:45.942Z,92.37
2018-09-25T16:15:13.481Z,93.26
2018-09-25T16:16:40.799Z,96.19
2018-09-25T16:18:08.249Z,98.88
2018-09-25T16:19:39.389Z,100.00
2018-09-25T16:21:05.801Z,100.00
2018-09-25T16:22:29.321Z,100.00
2018-09-25T16:23:56.663Z,100.00
2018-09-25T16:25:24.241Z,100.00
2018-09-25T16:26:50.803Z,100.00
2018-09-25T16:28:22.278Z,100.00
2018-09-25T16:29:49.769Z,100.00
2018-09-25T16:31:13.259Z,100.00
2018-09-25T16:32:40.547Z,100.00
2018-09-25T16:34:08.119Z,100.00
2018-09-25T16:35:38.132Z,100.00
2018-09-25T16:37:05.332Z,100.00
2018-09-25T16:38:27.572Z,100.00
2018-09-25T16:39:58.170Z,100.00
2018-09-25T16:41:21.399Z,100.00
2018-09-25T16:42:52.611Z,100.00
2018-09-25T16:44:20.126Z,100.00
2018-09-25T16:45:46.867Z,100.00
2018-09-25T16:47:14.219Z,100.00
2018-09-25T16:48:41.633Z,100.00
2018-09-25T16:50:08.537Z,100.00
2018-09-25T16:51:35.753Z,100.00
2018-09-25T16:53:03.092Z,100.00
2018-09-25T16:54:30.521Z,100.00
2018-09-25T16:55:52.865Z,100.00
2018-09-25T16:57:19.513Z,100.00
2018-09-25T16:58:45.898Z,100.00
2018-09-25T17:00:17.232Z,100.00
2018-09-25T17:01:44.414Z,100.00
2018-09-25T17:03:11.209Z,100.00
2018-09-25T17:04:38.476Z,100.00
2018-09-25T17:06:05.892Z,100.00
2018-09-25T17:07:33.052Z,100.00
2018-09-25T17:08:56.457Z,100.00
2018-09-25T17:10:23.913Z,100.00
2018-09-25T17:11:51.242Z,100.00
2018-09-25T17:13:18.045Z,100.00
2018-09-25T17:14:45.055Z,100.00
2018-09-25T17:16:12.531Z,100.00
2018-09-25T17:17:39.980Z,100.00
2018-09-25T17:19:11.382Z,100.00
2018-09-25T17:20:38.720Z,100.00
2018-09-25T17:22:01.271Z,100.00
2018-09-25T17:23:32.485Z,100.00
2018-09-25T17:24:59.934Z,100.00
2018-09-25T17:26:27.416Z,100.00
2018-09-25T17:27:49.923Z,100.00
2018-09-25T17:29:21.231Z,100.00
2018-09-25T17:30:44.144Z,100.00
2018-09-25T17:32:11.430Z,100.00
2018-09-25T17:33:42.615Z,100.00
2018-09-25T17:35:05.756Z,100.00
2018-09-25T17:36:37.019Z,100.00
2018-09-25T17:38:00.606Z,100.00
2018-09-25T17:39:31.819Z,100.00
2018-09-25T17:40:54.422Z,100.00
2018-09-25T17:42:21.891Z,100.00
2018-09-25T17:43:52.563Z,100.00
2018-09-25T17:45:15.805Z,100.00
2018-09-25T17:46:47.253Z,100.00
2018-09-25T17:48:10.415Z,100.00
2018-09-25T17:49:37.400Z,100.00
2018-09-25T17:51:08.415Z,100.00
2018-09-25T17:52:30.889Z,100.00
2018-09-25T17:53:58.295Z,100.00
2018-09-25T17:55:29.618Z,100.00
2018-09-25T17:56:52.849Z,100.00
2018-09-25T17:58:20.305Z,100.00
2018-09-25T17:59:47.581Z,100.00
2018-09-25T18:01:18.924Z,100.00
2018-09-25T18:02:42.152Z,100.00
2018-09-25T18:04:08.382Z,100.00
2018-09-25T18:05:35.308Z,100.00
2018-09-25T18:07:02.542Z,100.00
2018-09-25T18:08:30.069Z,100.00
2018-09-25T18:09:57.274Z,100.00
2018-09-25T18:11:24.549Z,100.00
2018-09-25T18:12:55.947Z,100.00
2018-09-25T18:14:19.305Z,100.00
2018-09-25T18:15:49.734Z,100.00
2018-09-25T18:17:17.208Z,100.00
2018-09-25T18:18:44.291Z,100.00
2018-09-25T18:20:07.581Z,100.00
2018-09-25T18:21:35.079Z,100.00
2018-09-25T18:23:01.071Z,100.00
2018-09-25T18:24:32.501Z,100.00
2018-09-25T18:25:55.813Z,100.00
2018-09-25T18:27:27.050Z,100.00
2018-09-25T18:28:49.606Z,100.00
2018-09-25T18:30:15.785Z,100.00
2018-09-25T18:31:47.313Z,100.00
2018-09-25T18:33:10.447Z,100.00
2018-09-25T18:34:41.725Z,100.00
2018-09-25T18:36:04.632Z,100.00
2018-09-25T18:37:32.023Z,100.00
2018-09-25T18:39:03.464Z,100.00
2018-09-25T18:40:30.642Z,100.00
2018-09-25T18:41:54.439Z,100.00
2018-09-25T18:43:25.156Z,100.00
2018-09-25T18:44:52.674Z,100.00
2018-09-25T18:46:15.611Z,100.00
2018-09-25T18:47:46.291Z,100.00
2018-09-25T18:49:12.962Z,100.00
2018-09-25T18:50:40.165Z,100.00
2018-09-25T18:52:03.770Z,100.00
2018-09-25T18:53:33.871Z,100.00
2018-09-25T18:54:57.146Z,100.00
2018-09-25T18:56:23.564Z,100.00
2018-09-25T18:57:54.376Z,100.00
2018-09-25T18:59:17.035Z,100.00
2018-09-25T19:00:48.438Z,100.00
2018-09-25T19:02:15.117Z,100.00
2018-09-25T19:03:42.327Z,100.00
2018-09-25T19:05:09.682Z,100.00
2018-09-25T19:06:33.252Z,100.00
2018-09-25T19:07:59.977Z,100.00
2018-09-25T19:09:31.211Z,100.00
2018-09-25T19:10:57.876Z,100.00
2018-09-25T19:12:21.290Z,100.00
2018-09-25T19:13:48.038Z,100.00
2018-09-25T19:15:19.426Z,100.00
2018-09-25T19:16:42.785Z,100.00
2018-09-25T19:18:14.062Z,100.00
2018-09-25T19:19:37.709Z,100.00
2018-09-25T19:21:08.972Z,100.00
2018-09-25T19:22:32.246Z,100.00
2018-09-25T19:24:03.733Z,100.00
2018-09-25T19:25:27.008Z,100.00
2018-09-25T19:26:58.434Z,100.00
2018-09-25T19:28:22.167Z,100.00
2018-09-25T19:29:49.481Z,100.00
2018-09-25T19:31:16.117Z,100.00
2018-09-25T19:32:46.503Z,100.00
2018-09-25T19:34:09.041Z,100.00
2018-09-25T19:35:40.397Z,100.00
2018-09-25T19:37:03.066Z,100.00
2018-09-25T19:38:33.742Z,100.00
2018-09-25T19:40:01.222Z,100.00
2018-09-25T19:41:24.540Z,100.00
2018-09-25T19:42:51.957Z,100.00
2018-09-25T19:44:22.582Z,100.00
2018-09-25T19:45:45.844Z,100.00
2018-09-25T19:47:16.462Z,100.00
2018-09-25T19:48:39.823Z,100.00
2018-09-25T19:50:07.133Z,100.00
2018-09-25T19:51:34.430Z,100.00
2018-09-25T19:53:01.667Z,100.00
2018-09-25T19:54:32.224Z,100.00
2018-09-25T19:55:55.436Z,100.00
2018-09-25T19:57:25.745Z,100.00
2018-09-25T19:58:49.257Z,100.00
2018-09-25T20:00:20.657Z,100.00
2018-09-25T20:01:47.726Z,100.00
2018-09-25T20:03:15.043Z,100.00
2018-09-25T20:04:38.349Z,100.00
2018-09-25T20:06:09.091Z,100.00
2018-09-25T20:07:36.431Z,100.00
2018-09-25T20:08:59.813Z,100.00
2018-09-25T20:10:27.304Z,100.00
2018-09-25T20:11:54.586Z,100.00
2018-09-25T20:13:20.948Z,100.00
2018-09-25T20:14:55.140Z,100.00
2018-09-25T20:16:19.472Z,100.00
2018-09-25T20:17:46.731Z,100.00
2018-09-25T20:19:09.126Z,100.00
2018-09-25T20:20:36.523Z,100.00
2018-09-25T20:22:07.834Z,100.00
2018-09-25T20:23:36.073Z,100.00
2018-09-25T20:24:58.346Z,100.00
2018-09-25T20:26:25.764Z,100.00
2018-09-25T20:27:56.901Z,100.00
2018-09-25T20:29:20.556Z,100.00
2018-09-25T20:30:46.629Z,100.00
2018-09-25T20:32:13.831Z,100.00
2018-09-25T20:33:39.855Z,100.00
2018-09-25T20:35:06.278Z,100.00
2018-09-25T20:36:33.299Z,100.00
2018-09-25T20:38:00.561Z,100.00
2018-09-25T20:39:27.844Z,100.00
2018-09-25T20:40:58.915Z,100.00
2018-09-25T20:42:22.313Z,100.00
2018-09-25T20:43:52.511Z,100.00
2018-09-25T20:45:19.704Z,100.00
2018-09-25T20:46:42.893Z,100.00
2018-09-25T20:48:14.197Z,100.00
2018-09-25T20:49:41.556Z,100.00
2018-09-25T20:51:08.700Z,100.00
2018-09-25T20:52:36.076Z,100.00
2018-09-25T20:53:59.442Z,100.00
2018-09-25T20:55:25.865Z,100.00
2018-09-25T20:56:57.219Z,100.00
2018-09-25T20:58:19.514Z,100.00
2018-09-25T20:59:50.822Z,100.00
2018-09-25T21:01:13.971Z,100.00
2018-09-25T21:02:41.403Z,100.00
2018-09-25T21:04:08.799Z,100.00
2018-09-25T21:05:40.149Z,100.00
2018-09-25T21:07:07.286Z,100.00
2018-09-25T21:08:30.738Z,100.00
2018-09-25T21:10:01.863Z,100.00
2018-09-25T21:11:28.998Z,100.00
2018-09-25T21:12:52.327Z,100.00
2018-09-25T21:14:19.691Z,100.00
2018-09-25T21:15:50.949Z,100.00
2018-09-25T21:17:18.199Z,100.00
2018-09-25T21:18:45.630Z,100.00
2018-09-25T21:20:08.619Z,100.00
2018-09-25T21:21:35.467Z,100.00
2018-09-25T21:23:06.830Z,100.00
2018-09-25T21:24:30.276Z,100.00
2018-09-25T21:26:01.463Z,100.00
2018-09-25T21:27:24.957Z,100.00
2018-09-25T21:28:56.254Z,100.00
2018-09-25T21:30:19.524Z,100.00
2018-09-25T21:31:50.647Z,100.00
2018-09-25T21:33:13.933Z,100.00
2018-09-25T21:34:44.345Z,100.00
2018-09-25T21:36:11.585Z,100.00
2018-09-25T21:37:34.979Z,100.00
2018-09-25T21:39:06.422Z,100.00
2018-09-25T21:40:33.094Z,100.00
2018-09-25T21:41:56.559Z,100.00
2018-09-25T21:43:23.893Z,100.00
2018-09-25T21:44:55.393Z,100.00
2018-09-25T21:46:22.824Z,100.00
2018-09-25T21:47:49.371Z,100.00
2018-09-25T21:49:16.888Z,100.00
2018-09-25T21:50:40.128Z,100.00
2018-09-25T21:52:07.395Z,100.00
2018-09-25T21:53:38.718Z,100.00
2018-09-25T21:55:05.934Z,100.00
2018-09-25T21:56:29.448Z,100.00
2018-09-25T21:57:56.008Z,100.00